sensor_id;sensor_type;location;lat;lon;timestamp;temperature;humidity
78988;DHT22;74752;44.786;37.680;2024-02-16T00:01:01;5.15;82.33
78988;DHT22;74752;44.786;37.680;2024-02-16T00:02:06;5.13;82.45
78988;DHT22;74752;44.786;37.680;2024-02-16T00:03:08;5.13;82.17
78988;DHT22;74752;44.786;37.680;2024-02-16T00:04:13;5.18;82.25
78988;DHT22;74752;44.786;37.680;2024-02-16T00:05:16;5.16;82.25
78988;DHT22;74752;44.786;37.680;2024-02-16T00:06:20;5.16;81.94
78988;DHT22;74752;44.786;37.680;2024-02-16T00:07:23;5.15;82.09
78988;DHT22;74752;44.786;37.680;2024-02-16T00:08:25;5.13;82.21
78988;DHT22;74752;44.786;37.680;2024-02-16T00:09:30;5.13;81.99
78988;DHT22;74752;44.786;37.680;2024-02-16T00:10:37;5.12;82.22
78988;DHT22;74752;44.786;37.680;2024-02-16T00:11:43;5.11;82.07
78988;DHT22;74752;44.786;37.680;2024-02-16T00:12:57;5.10;82.15
78988;DHT22;74752;44.786;37.680;2024-02-16T00:14:03;5.08;81.88
78988;DHT22;74752;44.786;37.680;2024-02-16T00:15:11;5.06;82.39
78988;DHT22;74752;44.786;37.680;2024-02-16T00:16:17;5.05;82.27
78988;DHT22;74752;44.786;37.680;2024-02-16T00:17:21;5.05;82.28
78988;DHT22;74752;44.786;37.680;2024-02-16T00:18:28;5.08;82.36
78988;DHT22;74752;44.786;37.680;2024-02-16T00:19:31;5.10;82.07
78988;DHT22;74752;44.786;37.680;2024-02-16T00:20:34;5.09;82.20
78988;DHT22;74752;44.786;37.680;2024-02-16T00:21:36;5.09;82.09
78988;DHT22;74752;44.786;37.680;2024-02-16T00:22:41;5.10;82.21
78988;DHT22;74752;44.786;37.680;2024-02-16T00:23:49;5.10;82.36
78988;DHT22;74752;44.786;37.680;2024-02-16T00:24:53;5.11;82.55
78988;DHT22;74752;44.786;37.680;2024-02-16T00:25:55;5.13;82.06
78988;DHT22;74752;44.786;37.680;2024-02-16T00:26:57;5.11;82.08
78988;DHT22;74752;44.786;37.680;2024-02-16T00:28:01;5.06;82.17
78988;DHT22;74752;44.786;37.680;2024-02-16T00:29:05;5.05;82.31
78988;DHT22;74752;44.786;37.680;2024-02-16T00:30:08;5.05;82.10
78988;DHT22;74752;44.786;37.680;2024-02-16T00:31:12;5.05;81.99
78988;DHT22;74752;44.786;37.680;2024-02-16T00:32:15;5.02;82.43
78988;DHT22;74752;44.786;37.680;2024-02-16T00:33:19;5.03;82.01
78988;DHT22;74752;44.786;37.680;2024-02-16T00:34:22;5.00;82.16
78988;DHT22;74752;44.786;37.680;2024-02-16T00:35:30;5.07;82.11
78988;DHT22;74752;44.786;37.680;2024-02-16T00:36:35;5.07;81.95
78988;DHT22;74752;44.786;37.680;2024-02-16T00:37:40;5.05;81.75
78988;DHT22;74752;44.786;37.680;2024-02-16T00:38:45;5.04;81.74
78988;DHT22;74752;44.786;37.680;2024-02-16T00:39:48;5.06;81.70
78988;DHT22;74752;44.786;37.680;2024-02-16T00:40:51;5.02;81.63
78988;DHT22;74752;44.786;37.680;2024-02-16T00:41:54;5.03;81.76
78988;DHT22;74752;44.786;37.680;2024-02-16T00:42:56;5.01;81.49
78988;DHT22;74752;44.786;37.680;2024-02-16T00:44:00;4.98;81.60
78988;DHT22;74752;44.786;37.680;2024-02-16T00:45:07;4.97;81.68
78988;DHT22;74752;44.786;37.680;2024-02-16T00:46:11;4.98;81.55
78988;DHT22;74752;44.786;37.680;2024-02-16T00:47:14;4.98;81.72
78988;DHT22;74752;44.786;37.680;2024-02-16T00:48:18;4.96;81.42
78988;DHT22;74752;44.786;37.680;2024-02-16T00:49:23;4.98;81.50
78988;DHT22;74752;44.786;37.680;2024-02-16T00:50:25;5.00;81.56
78988;DHT22;74752;44.786;37.680;2024-02-16T00:51:30;4.95;81.27
78988;DHT22;74752;44.786;37.680;2024-02-16T00:52:33;4.96;81.56
78988;DHT22;74752;44.786;37.680;2024-02-16T00:53:35;4.94;81.89
78988;DHT22;74752;44.786;37.680;2024-02-16T00:54:37;4.95;81.48
78988;DHT22;74752;44.786;37.680;2024-02-16T00:55:40;5.01;81.60
78988;DHT22;74752;44.786;37.680;2024-02-16T00:56:47;5.00;81.70
78988;DHT22;74752;44.786;37.680;2024-02-16T00:57:51;4.98;81.39
78988;DHT22;74752;44.786;37.680;2024-02-16T00:58:54;5.02;81.72
78988;DHT22;74752;44.786;37.680;2024-02-16T00:59:56;4.98;81.79
78988;DHT22;74752;44.786;37.680;2024-02-16T01:00:58;4.98;81.84
78988;DHT22;74752;44.786;37.680;2024-02-16T01:02:01;5.01;81.59
78988;DHT22;74752;44.786;37.680;2024-02-16T01:03:04;4.98;82.09
78988;DHT22;74752;44.786;37.680;2024-02-16T01:04:09;4.97;81.91
78988;DHT22;74752;44.786;37.680;2024-02-16T01:05:18;4.98;81.86
78988;DHT22;74752;44.786;37.680;2024-02-16T01:06:23;5.02;81.33
78988;DHT22;74752;44.786;37.680;2024-02-16T01:07:28;5.02;81.44
78988;DHT22;74752;44.786;37.680;2024-02-16T01:08:32;5.01;81.30
78988;DHT22;74752;44.786;37.680;2024-02-16T01:09:34;4.98;81.05
78988;DHT22;74752;44.786;37.680;2024-02-16T01:10:36;4.97;81.36
78988;DHT22;74752;44.786;37.680;2024-02-16T01:11:41;4.98;81.05
78988;DHT22;74752;44.786;37.680;2024-02-16T01:12:43;5.00;81.12
78988;DHT22;74752;44.786;37.680;2024-02-16T01:13:46;4.96;80.87
78988;DHT22;74752;44.786;37.680;2024-02-16T01:14:48;4.96;81.24
78988;DHT22;74752;44.786;37.680;2024-02-16T01:15:51;4.95;81.27
78988;DHT22;74752;44.786;37.680;2024-02-16T01:16:57;4.95;80.83
78988;DHT22;74752;44.786;37.680;2024-02-16T01:18:04;4.96;80.91
78988;DHT22;74752;44.786;37.680;2024-02-16T01:19:07;4.97;80.66
78988;DHT22;74752;44.786;37.680;2024-02-16T01:20:09;4.98;80.61
78988;DHT22;74752;44.786;37.680;2024-02-16T01:21:12;4.97;80.47
78988;DHT22;74752;44.786;37.680;2024-02-16T01:22:15;5.00;80.76
78988;DHT22;74752;44.786;37.680;2024-02-16T01:23:17;5.01;80.85
78988;DHT22;74752;44.786;37.680;2024-02-16T01:24:20;4.97;80.75
78988;DHT22;74752;44.786;37.680;2024-02-16T01:25:23;4.97;80.49
78988;DHT22;74752;44.786;37.680;2024-02-16T01:26:31;5.00;80.79
78988;DHT22;74752;44.786;37.680;2024-02-16T01:27:37;5.01;80.52
78988;DHT22;74752;44.786;37.680;2024-02-16T01:28:40;5.03;80.40
78988;DHT22;74752;44.786;37.680;2024-02-16T01:29:49;5.01;80.53
78988;DHT22;74752;44.786;37.680;2024-02-16T01:30:52;4.94;80.33
78988;DHT22;74752;44.786;37.680;2024-02-16T01:32:00;4.94;80.53
78988;DHT22;74752;44.786;37.680;2024-02-16T01:33:05;4.96;80.30
78988;DHT22;74752;44.786;37.680;2024-02-16T01:34:10;4.97;80.58
78988;DHT22;74752;44.786;37.680;2024-02-16T01:35:16;5.00;80.55
78988;DHT22;74752;44.786;37.680;2024-02-16T01:36:19;4.96;80.31
78988;DHT22;74752;44.786;37.680;2024-02-16T01:37:28;4.98;80.27
78988;DHT22;74752;44.786;37.680;2024-02-16T01:38:31;5.01;80.15
78988;DHT22;74752;44.786;37.680;2024-02-16T01:39:34;5.02;80.19
78988;DHT22;74752;44.786;37.680;2024-02-16T01:40:36;4.98;80.04
78988;DHT22;74752;44.786;37.680;2024-02-16T01:41:41;4.96;79.92
78988;DHT22;74752;44.786;37.680;2024-02-16T01:42:52;4.98;79.96
78988;DHT22;74752;44.786;37.680;2024-02-16T01:43:55;4.96;79.61
78988;DHT22;74752;44.786;37.680;2024-02-16T01:44:57;4.95;79.77
78988;DHT22;74752;44.786;37.680;2024-02-16T01:46:00;4.94;80.06
78988;DHT22;74752;44.786;37.680;2024-02-16T01:47:04;4.94;79.95
78988;DHT22;74752;44.786;37.680;2024-02-16T01:48:14;4.98;79.85
78988;DHT22;74752;44.786;37.680;2024-02-16T01:49:16;4.97;79.52
78988;DHT22;74752;44.786;37.680;2024-02-16T01:50:19;5.00;79.72
78988;DHT22;74752;44.786;37.680;2024-02-16T01:51:26;4.97;79.61
78988;DHT22;74752;44.786;37.680;2024-02-16T01:52:31;4.96;79.48
78988;DHT22;74752;44.786;37.680;2024-02-16T01:53:36;4.95;79.98
78988;DHT22;74752;44.786;37.680;2024-02-16T01:54:41;4.97;79.92
78988;DHT22;74752;44.786;37.680;2024-02-16T01:55:45;4.97;79.56
78988;DHT22;74752;44.786;37.680;2024-02-16T01:56:50;4.97;79.39
78988;DHT22;74752;44.786;37.680;2024-02-16T01:57:52;5.01;79.22
78988;DHT22;74752;44.786;37.680;2024-02-16T01:58:55;5.02;79.46
78988;DHT22;74752;44.786;37.680;2024-02-16T01:59:58;5.05;79.20
78988;DHT22;74752;44.786;37.680;2024-02-16T02:01:01;5.03;79.25
78988;DHT22;74752;44.786;37.680;2024-02-16T02:02:06;5.03;79.08
78988;DHT22;74752;44.786;37.680;2024-02-16T02:03:08;5.03;79.40
78988;DHT22;74752;44.786;37.680;2024-02-16T02:04:16;5.01;79.29
78988;DHT22;74752;44.786;37.680;2024-02-16T02:05:18;4.96;79.04
78988;DHT22;74752;44.786;37.680;2024-02-16T02:06:21;4.98;79.04
78988;DHT22;74752;44.786;37.680;2024-02-16T02:07:29;5.01;79.11
78988;DHT22;74752;44.786;37.680;2024-02-16T02:08:37;5.03;78.76
78988;DHT22;74752;44.786;37.680;2024-02-16T02:09:43;5.01;79.08
78988;DHT22;74752;44.786;37.680;2024-02-16T02:10:48;5.02;79.00
78988;DHT22;74752;44.786;37.680;2024-02-16T02:11:55;5.05;78.82
78988;DHT22;74752;44.786;37.680;2024-02-16T02:12:57;5.03;78.73
78988;DHT22;74752;44.786;37.680;2024-02-16T02:14:05;5.03;78.82
78988;DHT22;74752;44.786;37.680;2024-02-16T02:15:12;5.02;78.71
78988;DHT22;74752;44.786;37.680;2024-02-16T02:16:15;5.03;78.59
78988;DHT22;74752;44.786;37.680;2024-02-16T02:17:18;5.00;79.13
78988;DHT22;74752;44.786;37.680;2024-02-16T02:18:21;5.02;79.07
78988;DHT22;74752;44.786;37.680;2024-02-16T02:19:24;5.07;78.83
78988;DHT22;74752;44.786;37.680;2024-02-16T02:20:28;5.10;78.60
78988;DHT22;74752;44.786;37.680;2024-02-16T02:21:36;5.18;78.30
78988;DHT22;74752;44.786;37.680;2024-02-16T02:22:38;5.13;78.08
78988;DHT22;74752;44.786;37.680;2024-02-16T02:23:41;5.09;78.19
78988;DHT22;74752;44.786;37.680;2024-02-16T02:24:48;5.09;78.21
78988;DHT22;74752;44.786;37.680;2024-02-16T02:25:54;5.06;78.15
78988;DHT22;74752;44.786;37.680;2024-02-16T02:27:16;5.02;78.65
78988;DHT22;74752;44.786;37.680;2024-02-16T02:28:20;5.00;78.75
78988;DHT22;74752;44.786;37.680;2024-02-16T02:29:28;5.02;78.47
78988;DHT22;74752;44.786;37.680;2024-02-16T02:30:40;5.03;78.69
78988;DHT22;74752;44.786;37.680;2024-02-16T02:31:43;5.00;78.83
78988;DHT22;74752;44.786;37.680;2024-02-16T02:32:49;4.98;78.57
78988;DHT22;74752;44.786;37.680;2024-02-16T02:33:52;4.95;78.58
78988;DHT22;74752;44.786;37.680;2024-02-16T02:34:54;4.95;78.98
78988;DHT22;74752;44.786;37.680;2024-02-16T02:35:59;4.95;78.77
78988;DHT22;74752;44.786;37.680;2024-02-16T02:37:02;4.97;79.01
78988;DHT22;74752;44.786;37.680;2024-02-16T02:38:05;4.95;78.91
78988;DHT22;74752;44.786;37.680;2024-02-16T02:39:11;4.97;78.66
78988;DHT22;74752;44.786;37.680;2024-02-16T02:40:18;4.98;78.70
78988;DHT22;74752;44.786;37.680;2024-02-16T02:41:21;5.00;78.33
78988;DHT22;74752;44.786;37.680;2024-02-16T02:42:25;4.98;78.56
78988;DHT22;74752;44.786;37.680;2024-02-16T02:43:30;5.01;78.75
78988;DHT22;74752;44.786;37.680;2024-02-16T02:44:33;5.05;78.75
78988;DHT22;74752;44.786;37.680;2024-02-16T02:45:35;5.05;78.36
78988;DHT22;74752;44.786;37.680;2024-02-16T02:46:37;5.02;78.40
78988;DHT22;74752;44.786;37.680;2024-02-16T02:47:43;4.97;78.89
78988;DHT22;74752;44.786;37.680;2024-02-16T02:48:46;5.01;78.60
78988;DHT22;74752;44.786;37.680;2024-02-16T02:49:48;5.01;78.42
78988;DHT22;74752;44.786;37.680;2024-02-16T02:50:50;5.05;78.48
78988;DHT22;74752;44.786;37.680;2024-02-16T02:51:55;5.05;78.19
78988;DHT22;74752;44.786;37.680;2024-02-16T02:52:57;5.01;78.28
78988;DHT22;74752;44.786;37.680;2024-02-16T02:54:02;4.98;78.35
78988;DHT22;74752;44.786;37.680;2024-02-16T02:55:08;5.01;78.50
78988;DHT22;74752;44.786;37.680;2024-02-16T02:56:15;5.03;78.51
78988;DHT22;74752;44.786;37.680;2024-02-16T02:57:17;5.08;78.46
78988;DHT22;74752;44.786;37.680;2024-02-16T02:58:23;5.08;78.25
78988;DHT22;74752;44.786;37.680;2024-02-16T02:59:25;5.07;78.20
78988;DHT22;74752;44.786;37.680;2024-02-16T03:00:27;5.04;78.05
78988;DHT22;74752;44.786;37.680;2024-02-16T03:01:32;5.02;78.43
78988;DHT22;74752;44.786;37.680;2024-02-16T03:02:35;4.97;78.34
78988;DHT22;74752;44.786;37.680;2024-02-16T03:03:52;4.98;78.59
78988;DHT22;74752;44.786;37.680;2024-02-16T03:04:54;5.01;78.73
78988;DHT22;74752;44.786;37.680;2024-02-16T03:05:59;5.03;78.31
78988;DHT22;74752;44.786;37.680;2024-02-16T03:07:01;5.07;78.08
78988;DHT22;74752;44.786;37.680;2024-02-16T03:08:08;5.04;77.85
78988;DHT22;74752;44.786;37.680;2024-02-16T03:09:15;5.04;78.35
78988;DHT22;74752;44.786;37.680;2024-02-16T03:10:17;5.05;78.34
78988;DHT22;74752;44.786;37.680;2024-02-16T03:11:27;5.03;78.14
78988;DHT22;74752;44.786;37.680;2024-02-16T03:12:32;5.05;78.37
78988;DHT22;74752;44.786;37.680;2024-02-16T03:13:36;5.04;77.92
78988;DHT22;74752;44.786;37.680;2024-02-16T03:14:43;5.03;78.17
78988;DHT22;74752;44.786;37.680;2024-02-16T03:15:48;5.02;78.33
78988;DHT22;74752;44.786;37.680;2024-02-16T03:16:57;5.03;78.30
78988;DHT22;74752;44.786;37.680;2024-02-16T03:18:04;5.02;78.11
78988;DHT22;74752;44.786;37.680;2024-02-16T03:19:06;4.98;78.22
78988;DHT22;74752;44.786;37.680;2024-02-16T03:20:11;4.96;78.53
78988;DHT22;74752;44.786;37.680;2024-02-16T03:21:14;4.97;78.65
78988;DHT22;74752;44.786;37.680;2024-02-16T03:22:20;4.95;78.37
78988;DHT22;74752;44.786;37.680;2024-02-16T03:23:23;4.97;78.60
78988;DHT22;74752;44.786;37.680;2024-02-16T03:24:25;4.98;78.47
78988;DHT22;74752;44.786;37.680;2024-02-16T03:25:28;5.00;78.34
78988;DHT22;74752;44.786;37.680;2024-02-16T03:26:35;4.97;78.44
78988;DHT22;74752;44.786;37.680;2024-02-16T03:27:43;4.95;78.55
78988;DHT22;74752;44.786;37.680;2024-02-16T03:28:47;4.94;78.27
78988;DHT22;74752;44.786;37.680;2024-02-16T03:29:51;4.95;78.39
78988;DHT22;74752;44.786;37.680;2024-02-16T03:30:58;4.94;78.38
78988;DHT22;74752;44.786;37.680;2024-02-16T03:32:04;4.93;78.69
78988;DHT22;74752;44.786;37.680;2024-02-16T03:33:08;4.94;78.53
78988;DHT22;74752;44.786;37.680;2024-02-16T03:34:13;4.97;78.40
78988;DHT22;74752;44.786;37.680;2024-02-16T03:35:16;4.90;78.22
78988;DHT22;74752;44.786;37.680;2024-02-16T03:36:19;4.87;78.82
78988;DHT22;74752;44.786;37.680;2024-02-16T03:37:21;4.87;78.76
78988;DHT22;74752;44.786;37.680;2024-02-16T03:38:24;4.88;78.97
78988;DHT22;74752;44.786;37.680;2024-02-16T03:39:26;4.84;78.48
78988;DHT22;74752;44.786;37.680;2024-02-16T03:40:28;4.91;78.46
78988;DHT22;74752;44.786;37.680;2024-02-16T03:41:33;4.97;77.92
78988;DHT22;74752;44.786;37.680;2024-02-16T03:42:36;4.95;77.95
78988;DHT22;74752;44.786;37.680;2024-02-16T03:43:41;4.93;77.60
78988;DHT22;74752;44.786;37.680;2024-02-16T03:44:46;4.89;77.82
78988;DHT22;74752;44.786;37.680;2024-02-16T03:45:48;4.89;78.33
78988;DHT22;74752;44.786;37.680;2024-02-16T03:46:51;4.89;77.95
78988;DHT22;74752;44.786;37.680;2024-02-16T03:47:56;4.89;78.01
78988;DHT22;74752;44.786;37.680;2024-02-16T03:49:02;4.88;78.26
78988;DHT22;74752;44.786;37.680;2024-02-16T03:50:04;4.90;77.72
78988;DHT22;74752;44.786;37.680;2024-02-16T03:51:09;4.90;77.74
78988;DHT22;74752;44.786;37.680;2024-02-16T03:52:12;4.88;78.12
78988;DHT22;74752;44.786;37.680;2024-02-16T03:53:18;4.89;78.12
78988;DHT22;74752;44.786;37.680;2024-02-16T03:54:22;4.93;78.03
78988;DHT22;74752;44.786;37.680;2024-02-16T03:55:31;4.93;78.04
78988;DHT22;74752;44.786;37.680;2024-02-16T03:56:37;4.92;77.45
78988;DHT22;74752;44.786;37.680;2024-02-16T03:57:41;4.95;77.44
78988;DHT22;74752;44.786;37.680;2024-02-16T03:58:48;4.97;77.59
78988;DHT22;74752;44.786;37.680;2024-02-16T03:59:55;4.98;77.54
78988;DHT22;74752;44.786;37.680;2024-02-16T04:00:57;5.00;77.47
78988;DHT22;74752;44.786;37.680;2024-02-16T04:02:01;5.00;77.44
78988;DHT22;74752;44.786;37.680;2024-02-16T04:03:04;4.97;77.57
78988;DHT22;74752;44.786;37.680;2024-02-16T04:04:06;5.00;77.55
78988;DHT22;74752;44.786;37.680;2024-02-16T04:05:11;5.04;77.40
78988;DHT22;74752;44.786;37.680;2024-02-16T04:06:14;5.05;77.25
78988;DHT22;74752;44.786;37.680;2024-02-16T04:07:17;5.08;77.08
78988;DHT22;74752;44.786;37.680;2024-02-16T04:08:19;5.10;77.11
78988;DHT22;74752;44.786;37.680;2024-02-16T04:09:21;5.09;77.11
78988;DHT22;74752;44.786;37.680;2024-02-16T04:10:24;5.07;77.08
78988;DHT22;74752;44.786;37.680;2024-02-16T04:11:26;5.08;77.15
78988;DHT22;74752;44.786;37.680;2024-02-16T04:12:31;5.06;77.35
78988;DHT22;74752;44.786;37.680;2024-02-16T04:13:34;5.07;76.97
78988;DHT22;74752;44.786;37.680;2024-02-16T04:14:44;5.03;77.26
78988;DHT22;74752;44.786;37.680;2024-02-16T04:15:51;5.02;77.85
78988;DHT22;74752;44.786;37.680;2024-02-16T04:16:56;5.05;78.02
78988;DHT22;74752;44.786;37.680;2024-02-16T04:18:01;5.10;78.51
78988;DHT22;74752;44.786;37.680;2024-02-16T04:19:06;5.08;78.14
78988;DHT22;74752;44.786;37.680;2024-02-16T04:20:09;5.08;78.59
78988;DHT22;74752;44.786;37.680;2024-02-16T04:21:11;5.03;78.21
78988;DHT22;74752;44.786;37.680;2024-02-16T04:22:16;4.93;78.69
78988;DHT22;74752;44.786;37.680;2024-02-16T04:23:18;4.86;80.68
78988;DHT22;74752;44.786;37.680;2024-02-16T04:24:21;4.82;80.85
78988;DHT22;74752;44.786;37.680;2024-02-16T04:25:26;4.82;81.39
78988;DHT22;74752;44.786;37.680;2024-02-16T04:26:28;4.74;81.10
78988;DHT22;74752;44.786;37.680;2024-02-16T04:27:30;4.72;81.10
78988;DHT22;74752;44.786;37.680;2024-02-16T04:28:34;4.64;81.61
78988;DHT22;74752;44.786;37.680;2024-02-16T04:29:36;4.62;82.40
78988;DHT22;74752;44.786;37.680;2024-02-16T04:30:38;4.56;82.09
78988;DHT22;74752;44.786;37.680;2024-02-16T04:31:44;4.51;82.53
78988;DHT22;74752;44.786;37.680;2024-02-16T04:32:48;4.49;83.67
78988;DHT22;74752;44.786;37.680;2024-02-16T04:33:50;4.49;82.91
78988;DHT22;74752;44.786;37.680;2024-02-16T04:34:54;4.47;83.18
78988;DHT22;74752;44.786;37.680;2024-02-16T04:35:58;4.47;82.49
78988;DHT22;74752;44.786;37.680;2024-02-16T04:37:06;4.45;83.12
78988;DHT22;74752;44.786;37.680;2024-02-16T04:38:08;4.44;83.61
78988;DHT22;74752;44.786;37.680;2024-02-16T04:39:10;4.43;84.13
78988;DHT22;74752;44.786;37.680;2024-02-16T04:40:14;4.42;83.78
78988;DHT22;74752;44.786;37.680;2024-02-16T04:41:20;4.42;84.14
78988;DHT22;74752;44.786;37.680;2024-02-16T04:42:22;4.39;84.01
78988;DHT22;74752;44.786;37.680;2024-02-16T04:43:31;4.37;84.56
78988;DHT22;74752;44.786;37.680;2024-02-16T04:44:37;4.35;84.77
78988;DHT22;74752;44.786;37.680;2024-02-16T04:45:44;4.31;84.51
78988;DHT22;74752;44.786;37.680;2024-02-16T04:46:47;4.27;85.49
78988;DHT22;74752;44.786;37.680;2024-02-16T04:47:54;4.22;85.38
78988;DHT22;74752;44.786;37.680;2024-02-16T04:48:56;4.21;85.80
78988;DHT22;74752;44.786;37.680;2024-02-16T04:49:58;4.24;86.28
78988;DHT22;74752;44.786;37.680;2024-02-16T04:51:03;4.22;85.30
78988;DHT22;74752;44.786;37.680;2024-02-16T04:52:06;4.22;84.67
78988;DHT22;74752;44.786;37.680;2024-02-16T04:53:11;4.19;85.92
78988;DHT22;74752;44.786;37.680;2024-02-16T04:54:13;4.21;86.03
78988;DHT22;74752;44.786;37.680;2024-02-16T04:55:15;4.19;85.36
78988;DHT22;74752;44.786;37.680;2024-02-16T04:56:17;4.17;85.06
78988;DHT22;74752;44.786;37.680;2024-02-16T04:57:20;4.14;84.90
78988;DHT22;74752;44.786;37.680;2024-02-16T04:58:30;4.15;85.86
78988;DHT22;74752;44.786;37.680;2024-02-16T04:59:32;4.16;85.67
78988;DHT22;74752;44.786;37.680;2024-02-16T05:00:38;4.15;86.16
78988;DHT22;74752;44.786;37.680;2024-02-16T05:01:43;4.16;86.01
78988;DHT22;74752;44.786;37.680;2024-02-16T05:02:53;4.14;84.87
78988;DHT22;74752;44.786;37.680;2024-02-16T05:04:00;4.15;85.51
78988;DHT22;74752;44.786;37.680;2024-02-16T05:05:04;4.17;86.58
78988;DHT22;74752;44.786;37.680;2024-02-16T05:06:09;4.18;85.61
78988;DHT22;74752;44.786;37.680;2024-02-16T05:07:11;4.18;85.03
78988;DHT22;74752;44.786;37.680;2024-02-16T05:08:14;4.18;85.56
78988;DHT22;74752;44.786;37.680;2024-02-16T05:09:23;4.18;86.23
78988;DHT22;74752;44.786;37.680;2024-02-16T05:10:28;4.19;85.13
78988;DHT22;74752;44.786;37.680;2024-02-16T05:11:34;4.22;85.05
78988;DHT22;74752;44.786;37.680;2024-02-16T05:12:37;4.24;84.89
78988;DHT22;74752;44.786;37.680;2024-02-16T05:13:46;4.23;84.37
78988;DHT22;74752;44.786;37.680;2024-02-16T05:14:57;4.26;85.50
78988;DHT22;74752;44.786;37.680;2024-02-16T05:16:01;4.23;84.53
78988;DHT22;74752;44.786;37.680;2024-02-16T05:17:05;4.24;85.25
78988;DHT22;74752;44.786;37.680;2024-02-16T05:18:09;4.28;84.38
78988;DHT22;74752;44.786;37.680;2024-02-16T05:19:14;4.27;84.90
78988;DHT22;74752;44.786;37.680;2024-02-16T05:20:17;4.26;84.16
78988;DHT22;74752;44.786;37.680;2024-02-16T05:21:26;4.22;84.70
78988;DHT22;74752;44.786;37.680;2024-02-16T05:22:31;4.23;84.22
78988;DHT22;74752;44.786;37.680;2024-02-16T05:23:36;4.26;83.74
78988;DHT22;74752;44.786;37.680;2024-02-16T05:24:38;4.27;84.52
78988;DHT22;74752;44.786;37.680;2024-02-16T05:25:43;4.30;84.06
78988;DHT22;74752;44.786;37.680;2024-02-16T05:26:51;4.27;83.72
78988;DHT22;74752;44.786;37.680;2024-02-16T05:27:57;4.26;84.13
78988;DHT22;74752;44.786;37.680;2024-02-16T05:29:01;4.27;84.02
78988;DHT22;74752;44.786;37.680;2024-02-16T05:30:05;4.26;84.31
78988;DHT22;74752;44.786;37.680;2024-02-16T05:31:15;4.24;83.99
78988;DHT22;74752;44.786;37.680;2024-02-16T05:32:24;4.24;83.54
78988;DHT22;74752;44.786;37.680;2024-02-16T05:33:29;4.21;85.12
78988;DHT22;74752;44.786;37.680;2024-02-16T05:34:34;4.23;84.70
78988;DHT22;74752;44.786;37.680;2024-02-16T05:35:41;4.27;84.36
78988;DHT22;74752;44.786;37.680;2024-02-16T05:36:49;4.28;84.19
78988;DHT22;74752;44.786;37.680;2024-02-16T05:38:13;4.30;84.89
78988;DHT22;74752;44.786;37.680;2024-02-16T05:39:37;4.26;83.98
78988;DHT22;74752;44.786;37.680;2024-02-16T05:40:58;4.24;83.95
78988;DHT22;74752;44.786;37.680;2024-02-16T05:42:07;4.27;85.32
78988;DHT22;74752;44.786;37.680;2024-02-16T05:43:13;4.30;84.64
78988;DHT22;74752;44.786;37.680;2024-02-16T05:44:15;4.27;84.12
78988;DHT22;74752;44.786;37.680;2024-02-16T05:45:18;4.24;84.74
78988;DHT22;74752;44.786;37.680;2024-02-16T05:46:23;4.23;84.51
78988;DHT22;74752;44.786;37.680;2024-02-16T05:47:28;4.23;84.55
78988;DHT22;74752;44.786;37.680;2024-02-16T05:48:33;4.21;84.79
78988;DHT22;74752;44.786;37.680;2024-02-16T05:49:43;4.22;84.94
78988;DHT22;74752;44.786;37.680;2024-02-16T05:50:48;4.23;85.67
78988;DHT22;74752;44.786;37.680;2024-02-16T05:51:51;4.21;84.07
78988;DHT22;74752;44.786;37.680;2024-02-16T05:53:25;4.17;85.06
78988;DHT22;74752;44.786;37.680;2024-02-16T05:54:27;4.13;84.86
78988;DHT22;74752;44.786;37.680;2024-02-16T05:55:30;4.14;85.29
78988;DHT22;74752;44.786;37.680;2024-02-16T05:56:34;4.15;84.70
78988;DHT22;74752;44.786;37.680;2024-02-16T05:57:39;4.13;85.30
78988;DHT22;74752;44.786;37.680;2024-02-16T05:58:47;4.10;85.10
78988;DHT22;74752;44.786;37.680;2024-02-16T05:59:51;4.09;85.41
78988;DHT22;74752;44.786;37.680;2024-02-16T06:00:53;4.12;84.59
78988;DHT22;74752;44.786;37.680;2024-02-16T06:01:56;4.10;84.79
78988;DHT22;74752;44.786;37.680;2024-02-16T06:03:02;4.10;84.96
78988;DHT22;74752;44.786;37.680;2024-02-16T06:04:04;4.12;85.51
78988;DHT22;74752;44.786;37.680;2024-02-16T06:05:07;4.12;85.15
78988;DHT22;74752;44.786;37.680;2024-02-16T06:06:13;4.14;84.62
78988;DHT22;74752;44.786;37.680;2024-02-16T06:07:18;4.12;83.58
78988;DHT22;74752;44.786;37.680;2024-02-16T06:08:26;4.15;84.31
78988;DHT22;74752;44.786;37.680;2024-02-16T06:09:29;4.18;84.00
78988;DHT22;74752;44.786;37.680;2024-02-16T06:10:37;4.23;83.96
78988;DHT22;74752;44.786;37.680;2024-02-16T06:11:42;4.19;84.32
78988;DHT22;74752;44.786;37.680;2024-02-16T06:12:45;4.18;84.07
78988;DHT22;74752;44.786;37.680;2024-02-16T06:13:50;4.18;84.41
78988;DHT22;74752;44.786;37.680;2024-02-16T06:14:58;4.19;85.43
78988;DHT22;74752;44.786;37.680;2024-02-16T06:16:05;4.19;85.07
78988;DHT22;74752;44.786;37.680;2024-02-16T06:17:12;4.20;85.45
78988;DHT22;74752;44.786;37.680;2024-02-16T06:18:21;4.17;85.26
78988;DHT22;74752;44.786;37.680;2024-02-16T06:19:23;4.17;84.97
78988;DHT22;74752;44.786;37.680;2024-02-16T06:20:29;4.16;85.84
78988;DHT22;74752;44.786;37.680;2024-02-16T06:21:34;4.14;84.90
78988;DHT22;74752;44.786;37.680;2024-02-16T06:22:37;4.15;85.82
78988;DHT22;74752;44.786;37.680;2024-02-16T06:23:39;4.17;85.62
78988;DHT22;74752;44.786;37.680;2024-02-16T06:24:42;4.19;85.54
78988;DHT22;74752;44.786;37.680;2024-02-16T06:25:44;4.19;85.88
78988;DHT22;74752;44.786;37.680;2024-02-16T06:26:49;4.21;85.67
78988;DHT22;74752;44.786;37.680;2024-02-16T06:27:54;4.19;84.32
78988;DHT22;74752;44.786;37.680;2024-02-16T06:28:57;4.21;85.20
78988;DHT22;74752;44.786;37.680;2024-02-16T06:30:03;4.17;85.10
78988;DHT22;74752;44.786;37.680;2024-02-16T06:31:13;4.16;85.01
78988;DHT22;74752;44.786;37.680;2024-02-16T06:32:16;4.16;84.42
78988;DHT22;74752;44.786;37.680;2024-02-16T06:33:25;4.15;84.87
78988;DHT22;74752;44.786;37.680;2024-02-16T06:34:31;4.13;84.45
78988;DHT22;74752;44.786;37.680;2024-02-16T06:35:38;4.14;84.79
78988;DHT22;74752;44.786;37.680;2024-02-16T06:36:46;4.16;84.68
78988;DHT22;74752;44.786;37.680;2024-02-16T06:37:54;4.17;83.87
78988;DHT22;74752;44.786;37.680;2024-02-16T06:39:03;4.17;84.83
78988;DHT22;74752;44.786;37.680;2024-02-16T06:40:07;4.17;84.11
78988;DHT22;74752;44.786;37.680;2024-02-16T06:41:15;4.14;84.01
78988;DHT22;74752;44.786;37.680;2024-02-16T06:42:19;4.15;83.20
78988;DHT22;74752;44.786;37.680;2024-02-16T06:43:25;4.16;84.02
78988;DHT22;74752;44.786;37.680;2024-02-16T06:44:29;4.18;83.42
78988;DHT22;74752;44.786;37.680;2024-02-16T06:45:32;4.20;84.13
78988;DHT22;74752;44.786;37.680;2024-02-16T06:46:35;4.21;82.52
78988;DHT22;74752;44.786;37.680;2024-02-16T06:47:38;4.21;82.95
78988;DHT22;74752;44.786;37.680;2024-02-16T06:48:44;4.20;82.71
78988;DHT22;74752;44.786;37.680;2024-02-16T06:49:48;4.18;82.66